createdAt,value
2019-03-17T00:00:27.794Z,3.37
2019-03-17T00:01:21.253Z,2.10
2019-03-17T00:02:11.324Z,5.47
2019-03-17T00:03:01.403Z,1.77
2019-03-17T00:03:51.572Z,1.35
2019-03-17T00:04:42.259Z,1.60
2019-03-17T00:05:32.815Z,1.90
2019-03-17T00:06:22.463Z,2.80
2019-03-17T00:07:12.315Z,2.90
2019-03-17T00:08:02.491Z,1.92
2019-03-17T00:08:52.278Z,1.67
2019-03-17T00:09:42.712Z,2.85
2019-03-17T00:10:32.514Z,1.60
2019-03-17T00:11:22.697Z,2.85
2019-03-17T00:12:13.338Z,2.65
2019-03-17T00:13:03.192Z,1.92
2019-03-17T00:13:53.861Z,2.72
2019-03-17T00:14:44.070Z,1.37
2019-03-17T00:15:33.910Z,2.42
2019-03-17T00:16:23.402Z,2.02
2019-03-17T00:17:13.385Z,2.10
2019-03-17T00:18:04.360Z,2.20
2019-03-17T00:18:54.122Z,1.75
2019-03-17T00:19:44.517Z,1.72
2019-03-17T00:20:34.290Z,2.22
2019-03-17T00:21:24.436Z,1.90
2019-03-17T00:22:14.469Z,4.67
2019-03-17T00:23:04.205Z,1.65
2019-03-17T00:23:54.113Z,3.70
2019-03-17T00:24:43.734Z,2.45
2019-03-17T00:25:34.120Z,1.85
2019-03-17T00:26:23.451Z,1.55
2019-03-17T00:27:13.091Z,1.55
2019-03-17T00:28:02.622Z,3.95
2019-03-17T00:28:52.347Z,2.80
2019-03-17T00:29:42.446Z,1.82
2019-03-17T00:30:31.982Z,3.90
2019-03-17T00:31:24.214Z,4.30
2019-03-17T00:32:10.798Z,2.45
2019-03-17T00:33:00.981Z,4.30
2019-03-17T00:33:50.858Z,2.58
2019-03-17T00:34:44.415Z,2.62
2019-03-17T00:35:30.309Z,3.75
2019-03-17T00:36:20.390Z,1.62
2019-03-17T00:37:10.143Z,5.95
2019-03-17T00:38:00.314Z,4.72
2019-03-17T00:38:49.980Z,1.92
2019-03-17T00:39:39.591Z,3.62
2019-03-17T00:40:28.778Z,2.77
2019-03-17T00:41:18.488Z,2.25
2019-03-17T00:42:08.952Z,1.85
2019-03-17T00:43:01.084Z,3.85
2019-03-17T00:43:50.779Z,2.80
2019-03-17T00:44:40.745Z,1.75
2019-03-17T00:45:31.129Z,3.20
2019-03-17T00:46:20.925Z,4.62
2019-03-17T00:47:10.967Z,2.72
2019-03-17T00:48:00.290Z,3.25
2019-03-17T00:48:49.870Z,2.15
2019-03-17T00:49:40.765Z,2.90
2019-03-17T00:50:30.502Z,2.00
2019-03-17T00:51:20.856Z,1.70
2019-03-17T00:52:10.866Z,2.83
2019-03-17T00:53:00.115Z,3.47
2019-03-17T00:53:50.456Z,2.15
2019-03-17T00:54:40.044Z,3.92
2019-03-17T00:55:29.816Z,2.08
2019-03-17T00:56:23.473Z,1.52
2019-03-17T00:57:13.045Z,1.50
2019-03-17T00:58:02.770Z,1.37
2019-03-17T00:58:52.966Z,2.75
2019-03-17T00:59:42.603Z,1.45
2019-03-17T01:00:32.650Z,1.45
2019-03-17T01:01:22.295Z,1.20
2019-03-17T01:02:12.363Z,6.37
2019-03-17T01:03:02.295Z,1.37
2019-03-17T01:03:51.543Z,1.80
2019-03-17T01:04:42.829Z,4.60
2019-03-17T01:05:32.768Z,3.58
2019-03-17T01:06:23.012Z,1.87
2019-03-17T01:07:12.674Z,2.77
2019-03-17T01:08:02.163Z,1.60
2019-03-17T01:08:51.676Z,3.33
2019-03-17T01:09:41.353Z,1.45
2019-03-17T01:10:30.865Z,1.67
2019-03-17T01:11:20.574Z,1.30
2019-03-17T01:12:10.509Z,1.32
2019-03-17T01:12:59.914Z,2.08
2019-03-17T01:13:49.762Z,1.40
2019-03-17T01:14:39.462Z,1.77
2019-03-17T01:15:28.970Z,3.22
2019-03-17T01:16:19.044Z,1.67
2019-03-17T01:17:09.044Z,1.50
2019-03-17T01:17:59.530Z,1.70
2019-03-17T01:18:49.174Z,3.10
2019-03-17T01:19:39.197Z,1.60
2019-03-17T01:20:29.593Z,2.85
2019-03-17T01:21:18.837Z,2.17
2019-03-17T01:22:09.153Z,2.90
2019-03-17T01:23:00.017Z,1.72
2019-03-17T01:23:49.490Z,2.10
2019-03-17T01:24:40.022Z,1.47
2019-03-17T01:25:29.994Z,1.72
2019-03-17T01:26:19.914Z,6.60
2019-03-17T01:27:09.594Z,3.85
2019-03-17T01:27:59.381Z,2.12
2019-03-17T01:28:49.608Z,1.82
2019-03-17T01:29:39.272Z,2.47
2019-03-17T01:30:29.336Z,2.70
2019-03-17T01:31:18.979Z,1.47
2019-03-17T01:32:08.807Z,2.47
2019-03-17T01:32:58.496Z,4.78
2019-03-17T01:33:48.423Z,1.50
2019-03-17T01:34:38.217Z,1.45
2019-03-17T01:35:28.092Z,2.27
2019-03-17T01:36:17.712Z,1.60
2019-03-17T01:37:07.648Z,3.15
2019-03-17T01:37:58.067Z,1.55
2019-03-17T01:38:47.754Z,2.15
2019-03-17T01:39:37.756Z,1.30
2019-03-17T01:40:27.013Z,3.30
2019-03-17T01:41:16.855Z,1.47
2019-03-17T01:42:06.574Z,1.57
2019-03-17T01:42:56.262Z,1.77
2019-03-17T01:43:45.665Z,1.67
2019-03-17T01:44:35.266Z,2.47
2019-03-17T01:45:26.333Z,1.40
2019-03-17T01:46:15.848Z,1.50
2019-03-17T01:47:06.083Z,2.98
2019-03-17T01:47:55.861Z,1.70
2019-03-17T01:48:45.775Z,2.98
2019-03-17T01:49:35.499Z,2.55
2019-03-17T01:50:24.893Z,2.17
2019-03-17T01:51:15.014Z,2.75
2019-03-17T01:52:13.123Z,3.17
2019-03-17T01:53:02.752Z,2.05
2019-03-17T01:53:52.479Z,2.87
2019-03-17T01:54:42.091Z,2.25
2019-03-17T01:55:32.626Z,1.77
2019-03-17T01:56:21.962Z,1.75
2019-03-17T01:57:12.475Z,1.85
2019-03-17T01:58:02.424Z,1.55
2019-03-17T01:58:51.563Z,3.77
2019-03-17T01:59:41.638Z,1.60
2019-03-17T02:00:31.329Z,1.70
2019-03-17T02:01:21.247Z,1.60
2019-03-17T02:02:11.576Z,1.32
2019-03-17T02:03:01.554Z,1.60
2019-03-17T02:03:51.064Z,2.22
2019-03-17T02:04:40.909Z,2.37
2019-03-17T02:05:30.547Z,4.05
2019-03-17T02:06:20.831Z,4.40
2019-03-17T02:07:10.838Z,1.77
2019-03-17T02:08:00.091Z,4.45
2019-03-17T02:08:50.264Z,1.77
2019-03-17T02:09:40.437Z,2.83
2019-03-17T02:10:30.178Z,1.40
2019-03-17T02:11:19.853Z,3.05
2019-03-17T02:12:09.471Z,1.80
2019-03-17T02:12:59.538Z,1.90
2019-03-17T02:13:49.560Z,2.00
2019-03-17T02:14:39.364Z,2.35
2019-03-17T02:15:29.021Z,1.95
2019-03-17T02:16:18.665Z,2.37
2019-03-17T02:17:08.696Z,1.95
2019-03-17T02:17:58.712Z,2.90
2019-03-17T02:18:48.626Z,3.58
2019-03-17T02:19:38.206Z,2.33
2019-03-17T02:20:28.095Z,2.45
2019-03-17T02:21:17.619Z,1.42
2019-03-17T02:22:06.914Z,1.57
2019-03-17T02:22:57.107Z,2.25
2019-03-17T02:23:46.473Z,1.37
2019-03-17T02:24:36.144Z,2.75
2019-03-17T02:25:25.565Z,2.17
2019-03-17T02:26:15.579Z,2.47
2019-03-17T02:27:05.406Z,3.85
2019-03-17T02:27:55.672Z,1.82
2019-03-17T02:28:45.854Z,1.45
2019-03-17T02:29:35.782Z,2.83
2019-03-17T02:30:25.480Z,3.15
2019-03-17T02:31:15.100Z,2.00
2019-03-17T02:32:05.078Z,1.50
2019-03-17T02:32:54.596Z,1.80
2019-03-17T02:33:44.588Z,8.10
2019-03-17T02:34:34.824Z,1.92
2019-03-17T02:35:38.055Z,3.08
2019-03-17T02:36:14.823Z,1.60
2019-03-17T02:37:08.108Z,2.85
2019-03-17T02:37:57.718Z,2.00
2019-03-17T02:38:47.953Z,3.33
2019-03-17T02:39:37.972Z,3.27
2019-03-17T02:40:28.269Z,2.20
2019-03-17T02:41:18.208Z,1.87
2019-03-17T02:42:07.788Z,1.75
2019-03-17T02:42:57.067Z,3.27
2019-03-17T02:43:46.820Z,4.20
2019-03-17T02:44:37.307Z,6.87
2019-03-17T02:45:26.664Z,3.00
2019-03-17T02:46:16.627Z,2.00
2019-03-17T02:47:06.501Z,3.55
2019-03-17T02:47:57.855Z,1.80
2019-03-17T02:48:47.865Z,1.60
2019-03-17T02:49:37.512Z,1.67
2019-03-17T02:50:28.260Z,1.62
2019-03-17T02:51:20.173Z,1.40
2019-03-17T02:52:11.780Z,1.42
2019-03-17T02:53:02.193Z,1.35
2019-03-17T02:53:52.269Z,3.40
2019-03-17T02:54:42.045Z,2.15
2019-03-17T02:55:32.511Z,1.80
2019-03-17T02:56:23.526Z,1.85
2019-03-17T02:57:13.686Z,1.87
2019-03-17T02:58:03.709Z,1.30
2019-03-17T02:58:53.696Z,1.40
2019-03-17T02:59:43.957Z,3.17
2019-03-17T03:00:34.388Z,1.90
2019-03-17T03:01:23.984Z,1.67
2019-03-17T03:02:14.122Z,2.00
2019-03-17T03:03:03.993Z,1.50
2019-03-17T03:03:53.426Z,1.75
2019-03-17T03:04:42.893Z,1.60
2019-03-17T03:05:32.417Z,4.90
2019-03-17T03:06:22.141Z,6.25
2019-03-17T03:07:11.569Z,1.30
2019-03-17T03:08:01.985Z,1.80
2019-03-17T03:08:53.362Z,2.58
2019-03-17T03:09:43.599Z,1.50
2019-03-17T03:10:33.124Z,1.40
2019-03-17T03:11:22.896Z,1.92
2019-03-17T03:12:12.647Z,1.30
2019-03-17T03:13:01.819Z,2.30
2019-03-17T03:13:52.442Z,1.82
2019-03-17T03:14:41.657Z,1.25
2019-03-17T03:15:31.551Z,1.20
2019-03-17T03:16:21.415Z,1.67
2019-03-17T03:17:10.921Z,2.90
2019-03-17T03:18:00.837Z,3.17
2019-03-17T03:18:51.041Z,1.20
2019-03-17T03:19:41.065Z,1.40
2019-03-17T03:20:30.659Z,1.22
2019-03-17T03:21:20.719Z,4.60
2019-03-17T03:22:12.219Z,1.82
2019-03-17T03:23:01.421Z,3.72
2019-03-17T03:23:51.591Z,1.30
2019-03-17T03:24:41.150Z,1.40
2019-03-17T03:25:31.934Z,1.85
2019-03-17T03:26:22.197Z,4.00
2019-03-17T03:27:12.279Z,1.22
2019-03-17T03:28:02.780Z,1.32
2019-03-17T03:28:52.427Z,1.15
2019-03-17T03:29:41.863Z,1.07
2019-03-17T03:30:31.819Z,1.40
2019-03-17T03:31:21.537Z,3.90
2019-03-17T03:32:11.265Z,1.70
2019-03-17T03:33:01.150Z,1.35
2019-03-17T03:33:50.333Z,2.05
2019-03-17T03:34:40.215Z,1.30
2019-03-17T03:35:29.907Z,2.75
2019-03-17T03:36:20.805Z,1.52
2019-03-17T03:37:11.126Z,1.60
2019-03-17T03:38:00.763Z,2.22
2019-03-17T03:38:50.386Z,2.30
2019-03-17T03:39:39.795Z,3.25
2019-03-17T03:40:29.790Z,1.77
2019-03-17T03:41:20.180Z,3.22
2019-03-17T03:42:10.449Z,5.28
2019-03-17T03:43:00.565Z,5.00
2019-03-17T03:43:49.854Z,3.35
2019-03-17T03:44:39.389Z,2.98
2019-03-17T03:45:29.729Z,3.20
2019-03-17T03:46:20.720Z,4.20
2019-03-17T03:47:10.733Z,5.85
2019-03-17T03:48:02.094Z,1.90
2019-03-17T03:48:51.653Z,1.80
2019-03-17T03:49:41.574Z,1.50
2019-03-17T03:50:31.631Z,1.25
2019-03-17T03:51:21.243Z,1.55
2019-03-17T03:52:10.773Z,1.98
2019-03-17T03:53:00.053Z,1.45
2019-03-17T03:53:49.923Z,4.85
2019-03-17T03:54:39.455Z,1.62
2019-03-17T03:55:29.076Z,3.12
2019-03-17T03:56:19.545Z,1.40
2019-03-17T03:57:09.314Z,2.77
2019-03-17T03:57:59.003Z,1.30
2019-03-17T03:58:48.633Z,1.62
2019-03-17T03:59:38.019Z,2.40
2019-03-17T04:00:27.682Z,3.25
2019-03-17T04:01:17.647Z,4.42
2019-03-17T04:02:07.191Z,1.17
2019-03-17T04:02:57.200Z,2.17
2019-03-17T04:03:48.040Z,4.00
2019-03-17T04:04:37.504Z,3.15
2019-03-17T04:05:27.028Z,3.35
2019-03-17T04:06:26.227Z,6.53
2019-03-17T04:07:07.007Z,4.33
2019-03-17T04:07:57.272Z,12.58
2019-03-17T04:08:46.990Z,10.80
2019-03-17T04:09:37.427Z,25.37
2019-03-17T04:10:27.174Z,30.43
2019-03-17T04:11:18.602Z,13.72
2019-03-17T04:12:08.312Z,52.70
2019-03-17T04:12:59.257Z,33.85
2019-03-17T04:13:48.496Z,34.15
2019-03-17T04:14:38.105Z,51.42
2019-03-17T04:15:28.309Z,51.90
2019-03-17T04:16:17.955Z,40.23
2019-03-17T04:17:08.383Z,16.60
2019-03-17T04:17:58.690Z,13.75
2019-03-17T04:18:48.074Z,44.18
2019-03-17T04:19:38.062Z,37.10
2019-03-17T04:20:27.648Z,27.93
2019-03-17T04:21:17.742Z,28.05
2019-03-17T04:22:07.507Z,22.93
2019-03-17T04:22:56.922Z,15.83
2019-03-17T04:23:48.188Z,11.03
2019-03-17T04:24:39.685Z,11.20
2019-03-17T04:25:29.638Z,10.05
2019-03-17T04:26:19.178Z,10.38
2019-03-17T04:27:08.879Z,12.93
2019-03-17T04:27:59.189Z,8.90
2019-03-17T04:28:50.256Z,4.95
2019-03-17T04:29:40.090Z,8.73
2019-03-17T04:30:30.066Z,4.55
2019-03-17T04:31:19.801Z,4.20
2019-03-17T04:32:09.250Z,4.17
2019-03-17T04:32:59.424Z,4.28
2019-03-17T04:33:49.460Z,5.97
2019-03-17T04:34:39.624Z,4.65
2019-03-17T04:35:29.250Z,9.30
2019-03-17T04:36:19.030Z,6.90
2019-03-17T04:37:10.839Z,5.62
2019-03-17T04:38:00.799Z,8.70
2019-03-17T04:38:50.686Z,3.77
2019-03-17T04:39:40.717Z,3.02
2019-03-17T04:40:30.755Z,4.22
2019-03-17T04:41:20.429Z,2.80
2019-03-17T04:42:09.660Z,2.35
2019-03-17T04:42:59.289Z,6.72
2019-03-17T04:43:49.270Z,1.92
2019-03-17T04:44:39.321Z,1.77
2019-03-17T04:45:29.297Z,1.75
2019-03-17T04:46:19.079Z,2.17
2019-03-17T04:47:08.460Z,4.58
2019-03-17T04:47:57.948Z,2.60
2019-03-17T04:48:47.800Z,9.23
2019-03-17T04:49:37.612Z,3.15
2019-03-17T04:50:27.170Z,4.40
2019-03-17T04:51:17.163Z,7.55
2019-03-17T04:52:07.982Z,3.92
2019-03-17T04:52:58.114Z,4.30
2019-03-17T04:53:47.809Z,2.27
2019-03-17T04:54:37.858Z,2.35
2019-03-17T04:55:27.591Z,1.98
2019-03-17T04:56:17.144Z,2.00
2019-03-17T04:57:07.224Z,1.70
2019-03-17T04:57:57.385Z,1.62
2019-03-17T04:58:47.688Z,3.42
2019-03-17T04:59:37.989Z,1.55
2019-03-17T05:00:27.529Z,1.55
2019-03-17T05:01:17.347Z,5.45
2019-03-17T05:02:07.661Z,1.92
2019-03-17T05:02:57.643Z,3.08
2019-03-17T05:03:47.631Z,1.35
2019-03-17T05:04:37.159Z,1.30
2019-03-17T05:05:26.616Z,1.40
2019-03-17T05:06:15.937Z,2.40
2019-03-17T05:07:05.614Z,2.17
2019-03-17T05:07:55.500Z,1.77
2019-03-17T05:08:45.586Z,2.62
2019-03-17T05:09:35.450Z,1.67
2019-03-17T05:10:26.335Z,3.65
2019-03-17T05:11:16.448Z,2.75
2019-03-17T05:12:05.744Z,1.80
2019-03-17T05:12:55.676Z,1.85
2019-03-17T05:13:45.135Z,2.52
2019-03-17T05:14:35.060Z,5.60
2019-03-17T05:15:25.080Z,3.90
2019-03-17T05:16:14.639Z,1.57
2019-03-17T05:17:05.496Z,1.30
2019-03-17T05:17:54.765Z,1.12
2019-03-17T05:18:44.296Z,1.35
2019-03-17T05:19:34.350Z,1.42
2019-03-17T05:20:24.325Z,7.85
2019-03-17T05:21:13.856Z,2.05
2019-03-17T05:22:03.180Z,1.62
2019-03-17T05:22:53.224Z,1.75
2019-03-17T05:23:43.507Z,2.10
2019-03-17T05:24:33.546Z,3.10
2019-03-17T05:25:23.284Z,1.67
2019-03-17T05:26:12.997Z,2.02
2019-03-17T05:27:02.721Z,3.08
2019-03-17T05:27:52.789Z,1.72
2019-03-17T05:28:42.469Z,3.33
2019-03-17T05:29:32.429Z,2.15
2019-03-17T05:30:22.135Z,1.95
2019-03-17T05:31:11.938Z,1.70
2019-03-17T05:32:02.538Z,1.65
2019-03-17T05:32:52.389Z,1.98
2019-03-17T05:33:42.826Z,3.15
2019-03-17T05:34:32.342Z,2.62
2019-03-17T05:35:21.984Z,1.50
2019-03-17T05:36:11.686Z,1.95
2019-03-17T05:37:06.527Z,1.92
2019-03-17T05:37:51.090Z,3.45
2019-03-17T05:38:41.108Z,1.70
2019-03-17T05:39:30.874Z,1.80
2019-03-17T05:40:21.335Z,2.40
2019-03-17T05:41:11.165Z,3.98
2019-03-17T05:42:01.347Z,2.27
2019-03-17T05:42:51.120Z,4.62
2019-03-17T05:43:41.649Z,2.37
2019-03-17T05:44:31.797Z,2.00
2019-03-17T05:45:21.226Z,1.87
2019-03-17T05:46:11.777Z,4.67
2019-03-17T05:47:01.825Z,1.70
2019-03-17T05:47:51.027Z,2.33
2019-03-17T05:48:40.958Z,3.02
2019-03-17T05:49:30.989Z,2.12
2019-03-17T05:50:22.275Z,2.87
2019-03-17T05:51:12.925Z,2.77
2019-03-17T05:52:03.629Z,1.92
2019-03-17T05:52:53.759Z,2.98
2019-03-17T05:53:43.566Z,3.72
2019-03-17T05:54:33.449Z,1.85
2019-03-17T05:55:23.340Z,2.80
2019-03-17T05:56:13.343Z,2.65
2019-03-17T05:57:03.730Z,2.67
2019-03-17T05:57:53.609Z,1.85
2019-03-17T05:58:43.277Z,2.77
2019-03-17T05:59:33.491Z,1.40
2019-03-17T06:00:25.392Z,2.12
2019-03-17T06:01:15.188Z,1.40
2019-03-17T06:02:04.727Z,1.65
2019-03-17T06:02:54.931Z,1.55
2019-03-17T06:03:44.573Z,7.95
2019-03-17T06:04:34.862Z,4.12
2019-03-17T06:05:24.673Z,4.00
2019-03-17T06:06:14.749Z,4.87
2019-03-17T06:07:04.533Z,3.72
2019-03-17T06:07:54.137Z,5.55
2019-03-17T06:08:44.128Z,9.20
2019-03-17T06:09:34.553Z,15.75
2019-03-17T06:10:24.779Z,27.65
2019-03-17T06:11:14.492Z,51.75
2019-03-17T06:12:03.837Z,30.88
2019-03-17T06:12:59.613Z,22.98
2019-03-17T06:13:51.124Z,13.13
2019-03-17T06:14:38.705Z,14.50
2019-03-17T06:15:29.138Z,9.75
2019-03-17T06:16:18.802Z,13.85
2019-03-17T06:17:08.834Z,10.82
2019-03-17T06:17:59.491Z,16.07
2019-03-17T06:18:49.813Z,15.00
2019-03-17T06:19:39.150Z,26.40
2019-03-17T06:20:29.961Z,21.25
2019-03-17T06:21:19.689Z,23.35
2019-03-17T06:22:09.250Z,6.92
2019-03-17T06:23:01.335Z,6.47
2019-03-17T06:23:51.514Z,3.42
2019-03-17T06:24:41.346Z,4.83
2019-03-17T06:25:30.704Z,4.80
2019-03-17T06:26:20.369Z,5.47
2019-03-17T06:27:10.413Z,13.70
2019-03-17T06:28:00.856Z,10.03
2019-03-17T06:28:51.427Z,4.92
2019-03-17T06:29:41.121Z,20.55
2019-03-17T06:30:31.191Z,10.28
2019-03-17T06:31:20.970Z,6.10
2019-03-17T06:32:10.493Z,5.72
2019-03-17T06:33:00.932Z,13.88
2019-03-17T06:33:50.699Z,7.87
2019-03-17T06:34:40.594Z,3.42
2019-03-17T06:35:30.562Z,3.33
2019-03-17T06:36:21.217Z,1.50
2019-03-17T06:37:10.949Z,3.75
2019-03-17T06:38:00.630Z,15.32
2019-03-17T06:38:49.879Z,8.10
2019-03-17T06:39:42.326Z,9.05
2019-03-17T06:40:31.843Z,5.60
2019-03-17T06:41:21.455Z,5.70
2019-03-17T06:42:11.072Z,3.40
2019-03-17T06:43:00.942Z,3.87
2019-03-17T06:43:50.385Z,4.05
2019-03-17T06:44:39.917Z,12.43
2019-03-17T06:45:29.543Z,4.05
2019-03-17T06:46:19.140Z,4.40
2019-03-17T06:47:09.098Z,2.95
2019-03-17T06:47:59.688Z,7.50
2019-03-17T06:48:50.972Z,6.87
2019-03-17T06:49:42.429Z,7.30
2019-03-17T06:50:32.376Z,4.03
2019-03-17T06:51:21.897Z,2.80
2019-03-17T06:52:11.774Z,2.20
2019-03-17T06:53:01.565Z,2.10
2019-03-17T06:53:56.625Z,3.00
2019-03-17T06:54:41.813Z,2.92
2019-03-17T06:55:31.467Z,3.12
2019-03-17T06:56:21.449Z,2.55
2019-03-17T06:57:12.932Z,6.95
2019-03-17T06:58:02.551Z,13.98
2019-03-17T06:58:52.656Z,8.20
2019-03-17T06:59:41.918Z,5.37
2019-03-17T07:00:34.720Z,3.77
2019-03-17T07:01:25.672Z,4.22
2019-03-17T07:02:15.970Z,2.20
2019-03-17T07:03:05.731Z,3.40
2019-03-17T07:03:55.947Z,4.40
2019-03-17T07:04:46.167Z,6.72
2019-03-17T07:05:35.657Z,3.87
2019-03-17T07:06:25.422Z,8.15
2019-03-17T07:07:15.714Z,3.22
2019-03-17T07:08:06.062Z,4.28
2019-03-17T07:08:55.773Z,4.60
2019-03-17T07:09:45.052Z,7.90
2019-03-17T07:10:37.116Z,7.85
2019-03-17T07:11:26.450Z,4.42
2019-03-17T07:12:16.788Z,3.30
2019-03-17T07:13:06.900Z,1.55
2019-03-17T07:13:56.957Z,2.45
2019-03-17T07:14:47.155Z,3.33
2019-03-17T07:15:36.375Z,2.70
2019-03-17T07:16:26.211Z,4.00
2019-03-17T07:17:19.195Z,4.00
2019-03-17T07:18:06.524Z,2.58
2019-03-17T07:18:56.472Z,3.45
2019-03-17T07:19:46.455Z,3.98
2019-03-17T07:20:36.883Z,4.50
2019-03-17T07:21:27.135Z,5.67
2019-03-17T07:22:17.665Z,6.87
2019-03-17T07:23:07.673Z,2.75
2019-03-17T07:23:57.810Z,2.40
2019-03-17T07:24:47.758Z,5.42
2019-03-17T07:25:37.292Z,6.03
2019-03-17T07:26:27.463Z,2.92
2019-03-17T07:27:17.691Z,3.00
2019-03-17T07:28:08.441Z,3.10
2019-03-17T07:28:57.842Z,3.65
2019-03-17T07:29:49.484Z,7.17
2019-03-17T07:30:38.024Z,5.00
2019-03-17T07:31:28.034Z,2.85
2019-03-17T07:32:18.282Z,4.42
2019-03-17T07:33:08.356Z,3.10
2019-03-17T07:33:58.169Z,3.52
2019-03-17T07:34:48.243Z,3.00
2019-03-17T07:35:38.616Z,2.15
2019-03-17T07:36:28.597Z,1.52
2019-03-17T07:37:18.623Z,2.05
2019-03-17T07:38:08.734Z,1.20
2019-03-17T07:39:10.815Z,1.80
2019-03-17T07:39:47.930Z,2.05
2019-03-17T07:40:37.575Z,2.83
2019-03-17T07:41:27.734Z,1.85
2019-03-17T07:42:17.548Z,1.90
2019-03-17T07:43:06.687Z,2.22
2019-03-17T07:43:56.309Z,1.52
2019-03-17T07:44:45.899Z,1.45
2019-03-17T07:45:35.676Z,1.60
2019-03-17T07:46:25.750Z,1.50
2019-03-17T07:47:15.448Z,1.85
2019-03-17T07:48:05.268Z,1.50
2019-03-17T07:48:54.882Z,1.60
2019-03-17T07:49:45.792Z,1.70
2019-03-17T07:50:35.599Z,1.95
2019-03-17T07:51:25.561Z,2.83
2019-03-17T07:52:14.853Z,5.47
2019-03-17T07:53:04.200Z,6.83
2019-03-17T07:53:53.543Z,3.87
2019-03-17T07:54:42.941Z,5.70
2019-03-17T07:55:32.399Z,4.78
2019-03-17T07:56:21.923Z,3.30
2019-03-17T07:57:11.122Z,2.58
2019-03-17T07:58:00.518Z,2.60
2019-03-17T07:58:50.856Z,4.25
2019-03-17T07:59:40.078Z,2.22
2019-03-17T08:00:32.208Z,6.37
2019-03-17T08:01:19.047Z,4.33
2019-03-17T08:02:08.652Z,2.70
2019-03-17T08:02:58.337Z,2.20
2019-03-17T08:03:48.366Z,4.12
2019-03-17T08:04:43.782Z,2.00
2019-03-17T08:05:28.532Z,5.17
2019-03-17T08:06:18.122Z,1.42
2019-03-17T08:07:08.038Z,1.15
2019-03-17T08:08:08.719Z,3.67
2019-03-17T08:08:48.174Z,2.52
2019-03-17T08:09:37.438Z,2.02
2019-03-17T08:10:27.957Z,1.50
2019-03-17T08:11:17.780Z,3.12
2019-03-17T08:12:07.558Z,4.78
2019-03-17T08:12:57.124Z,1.45
2019-03-17T08:13:47.168Z,2.70
2019-03-17T08:14:36.957Z,2.15
2019-03-17T08:15:26.707Z,2.47
2019-03-17T08:16:16.526Z,3.50
2019-03-17T08:17:06.738Z,1.80
2019-03-17T08:17:57.001Z,2.55
2019-03-17T08:18:46.311Z,2.50
2019-03-17T08:19:36.327Z,3.10
2019-03-17T08:20:26.197Z,3.58
2019-03-17T08:21:15.738Z,1.65
2019-03-17T08:22:06.764Z,1.50
2019-03-17T08:22:57.066Z,2.58
2019-03-17T08:23:46.810Z,3.25
2019-03-17T08:24:36.450Z,1.40
2019-03-17T08:25:26.279Z,2.25
2019-03-17T08:26:16.408Z,1.95
2019-03-17T08:27:05.977Z,6.17
2019-03-17T08:27:55.623Z,1.22
2019-03-17T08:28:45.887Z,2.70
2019-03-17T08:29:36.436Z,1.90
2019-03-17T08:30:25.767Z,1.42
2019-03-17T08:31:15.811Z,3.00
2019-03-17T08:32:05.023Z,1.62
2019-03-17T08:32:56.544Z,1.57
2019-03-17T08:33:46.097Z,1.32
2019-03-17T08:34:36.313Z,1.80
2019-03-17T08:35:26.206Z,2.02
2019-03-17T08:36:16.215Z,2.17
2019-03-17T08:37:06.632Z,1.30
2019-03-17T08:37:56.990Z,2.00
2019-03-17T08:38:46.444Z,1.27
2019-03-17T08:39:36.466Z,1.52
2019-03-17T08:40:27.111Z,1.40
2019-03-17T08:41:17.437Z,2.02
2019-03-17T08:42:07.915Z,2.45
2019-03-17T08:42:57.276Z,2.50
2019-03-17T08:43:54.206Z,1.90
2019-03-17T08:44:37.689Z,1.60
2019-03-17T08:45:27.784Z,3.62
2019-03-17T08:46:18.185Z,4.65
2019-03-17T08:47:08.285Z,2.10
2019-03-17T08:47:58.748Z,6.95
2019-03-17T08:48:47.475Z,3.85
2019-03-17T08:49:37.437Z,3.02
2019-03-17T08:50:27.151Z,3.55
2019-03-17T08:51:17.205Z,1.90
2019-03-17T08:52:07.660Z,1.80
2019-03-17T08:52:57.571Z,1.77
2019-03-17T08:53:47.916Z,2.35
2019-03-17T08:54:37.626Z,1.60
2019-03-17T08:55:27.580Z,3.83
2019-03-17T08:56:17.503Z,1.50
2019-03-17T08:57:07.288Z,1.80
2019-03-17T08:57:57.236Z,2.58
2019-03-17T08:58:47.503Z,1.80
2019-03-17T08:59:38.287Z,2.67
2019-03-17T09:00:27.629Z,1.62
2019-03-17T09:01:18.059Z,1.65
2019-03-17T09:02:07.527Z,2.50
2019-03-17T09:02:57.394Z,2.05
2019-03-17T09:03:47.931Z,2.55
2019-03-17T09:04:38.038Z,1.60
2019-03-17T09:05:27.963Z,1.77
2019-03-17T09:06:17.656Z,1.60
2019-03-17T09:07:08.161Z,1.37
2019-03-17T09:07:58.584Z,1.80
2019-03-17T09:08:48.922Z,1.65
2019-03-17T09:09:38.548Z,3.72
2019-03-17T09:10:28.545Z,3.50
2019-03-17T09:11:18.647Z,3.83
2019-03-17T09:12:08.489Z,1.55
2019-03-17T09:12:57.847Z,1.02
2019-03-17T09:13:47.389Z,1.10
2019-03-17T09:14:37.137Z,0.90
2019-03-17T09:15:27.437Z,1.75
2019-03-17T09:16:17.541Z,1.00
2019-03-17T09:17:14.398Z,1.67
2019-03-17T09:17:56.781Z,1.40
2019-03-17T09:18:46.479Z,3.70
2019-03-17T09:19:37.448Z,1.10
2019-03-17T09:20:27.157Z,1.30
2019-03-17T09:21:16.831Z,2.75
2019-03-17T09:22:06.659Z,1.00
2019-03-17T09:22:57.095Z,1.47
2019-03-17T09:23:47.544Z,1.20
2019-03-17T09:24:36.869Z,1.72
2019-03-17T09:25:27.277Z,1.20
2019-03-17T09:26:16.515Z,1.30
2019-03-17T09:27:06.236Z,1.30
2019-03-17T09:27:56.661Z,1.35
2019-03-17T09:28:46.499Z,2.15
2019-03-17T09:29:36.577Z,2.37
2019-03-17T09:30:25.907Z,1.98
2019-03-17T09:31:15.901Z,1.50
2019-03-17T09:32:06.456Z,1.27
2019-03-17T09:32:56.841Z,1.32
2019-03-17T09:33:46.491Z,1.40
2019-03-17T09:34:37.102Z,1.90
2019-03-17T09:35:26.195Z,2.33
2019-03-17T09:36:16.337Z,1.00
2019-03-17T09:37:06.701Z,1.30
2019-03-17T09:37:58.075Z,1.15
2019-03-17T09:38:47.987Z,1.10
2019-03-17T09:39:37.776Z,1.27
2019-03-17T09:40:27.446Z,0.78
2019-03-17T09:41:18.042Z,1.75
2019-03-17T09:42:07.809Z,1.10
2019-03-17T09:42:57.414Z,2.05
2019-03-17T09:43:47.561Z,1.60
2019-03-17T09:44:37.883Z,1.32
2019-03-17T09:45:28.737Z,1.05
2019-03-17T09:46:18.860Z,2.77
2019-03-17T09:47:08.672Z,1.20
2019-03-17T09:47:59.164Z,1.05
2019-03-17T09:48:48.778Z,1.60
2019-03-17T09:49:38.393Z,0.90
2019-03-17T09:50:28.522Z,0.90
2019-03-17T09:51:19.033Z,1.00
2019-03-17T09:52:08.196Z,2.37
2019-03-17T09:52:59.061Z,1.30
2019-03-17T09:53:48.821Z,1.65
2019-03-17T09:54:38.408Z,1.20
2019-03-17T09:55:28.395Z,1.37
2019-03-17T09:56:18.619Z,1.35
2019-03-17T09:57:08.208Z,1.85
2019-03-17T09:57:58.101Z,1.77
2019-03-17T09:58:47.561Z,1.15
2019-03-17T09:59:37.541Z,1.57
2019-03-17T10:00:28.178Z,2.05
2019-03-17T10:01:18.388Z,2.90
2019-03-17T10:02:08.404Z,1.00
2019-03-17T10:02:57.754Z,0.93
2019-03-17T10:03:47.553Z,1.27
2019-03-17T10:04:37.152Z,1.10
2019-03-17T10:05:27.141Z,0.93
2019-03-17T10:06:19.823Z,1.20
2019-03-17T10:07:09.688Z,1.65
2019-03-17T10:08:00.050Z,1.00
2019-03-17T10:08:59.350Z,1.47
2019-03-17T10:09:40.087Z,0.98
2019-03-17T10:10:30.203Z,1.40
2019-03-17T10:11:20.661Z,3.67
2019-03-17T10:12:10.630Z,1.90
2019-03-17T10:13:00.612Z,0.90
2019-03-17T10:13:50.703Z,1.20
2019-03-17T10:14:41.053Z,1.10
2019-03-17T10:15:31.601Z,1.15
2019-03-17T10:16:21.845Z,3.07
2019-03-17T10:17:12.371Z,0.93
2019-03-17T10:18:02.366Z,0.90
2019-03-17T10:18:52.520Z,1.72
2019-03-17T10:19:42.029Z,1.05
2019-03-17T10:20:31.750Z,2.00
2019-03-17T10:21:21.490Z,0.90
2019-03-17T10:22:12.756Z,1.00
2019-03-17T10:23:02.854Z,1.00
2019-03-17T10:23:53.188Z,1.90
2019-03-17T10:24:43.483Z,1.80
2019-03-17T10:25:33.475Z,1.10
2019-03-17T10:26:23.119Z,1.27
2019-03-17T10:27:13.661Z,1.90
2019-03-17T10:28:04.256Z,1.93
2019-03-17T10:28:53.918Z,1.20
2019-03-17T10:29:45.214Z,1.27
2019-03-17T10:30:35.170Z,1.13
2019-03-17T10:31:24.442Z,1.30
2019-03-17T10:32:14.627Z,2.93
2019-03-17T10:33:04.970Z,2.57
2019-03-17T10:33:54.875Z,1.50
2019-03-17T10:34:44.405Z,1.33
2019-03-17T10:35:34.047Z,1.50
2019-03-17T10:36:24.386Z,1.20
2019-03-17T10:37:14.633Z,1.23
2019-03-17T10:38:04.702Z,1.70
2019-03-17T10:38:54.541Z,1.10
2019-03-17T10:39:44.165Z,2.20
2019-03-17T10:40:33.799Z,0.90
2019-03-17T10:41:24.265Z,1.03
2019-03-17T10:42:14.256Z,1.70
2019-03-17T10:43:04.323Z,1.80
2019-03-17T10:43:54.012Z,4.13
2019-03-17T10:44:43.496Z,0.83
2019-03-17T10:45:33.599Z,1.60
2019-03-17T10:46:24.021Z,1.27
2019-03-17T10:47:13.747Z,0.90
2019-03-17T10:48:03.270Z,0.90
2019-03-17T10:48:53.194Z,0.77
2019-03-17T10:49:43.240Z,1.70
2019-03-17T10:50:33.074Z,0.60
2019-03-17T10:51:23.493Z,0.60
2019-03-17T10:52:13.496Z,0.70
2019-03-17T10:53:03.538Z,0.60
2019-03-17T10:53:53.691Z,0.70
2019-03-17T10:54:43.242Z,0.77
2019-03-17T10:55:33.284Z,0.80
2019-03-17T10:56:23.418Z,0.67
2019-03-17T10:57:12.932Z,0.80
2019-03-17T10:58:02.830Z,0.80
2019-03-17T10:58:52.831Z,0.60
2019-03-17T10:59:42.840Z,0.70
2019-03-17T11:00:32.234Z,0.70
2019-03-17T11:01:22.972Z,0.80
2019-03-17T11:02:13.120Z,0.70
2019-03-17T11:03:02.740Z,5.07
2019-03-17T11:03:52.849Z,2.87